sensor_id;sensor_type;location;lat;lon;timestamp;pressure;altitude;pressure_sealevel;temperature;humidity
86442;BME280;77105;48.940;12.050;2024-03-29T00:01:54;96166.19;;;3.27;82.05
86442;BME280;77105;48.940;12.050;2024-03-29T00:05:55;96169.69;;;3.28;82.40
86442;BME280;77105;48.940;12.050;2024-03-29T00:09:57;96158.16;;;3.27;82.11
86442;BME280;77105;48.940;12.050;2024-03-29T00:13:58;96159.81;;;3.28;82.10
86442;BME280;77105;48.940;12.050;2024-03-29T00:18:00;96150.97;;;3.28;82.50
86442;BME280;77105;48.940;12.050;2024-03-29T00:22:01;96147.47;;;3.27;82.54
86442;BME280;77105;48.940;12.050;2024-03-29T00:26:03;96141.09;;;3.28;82.74
86442;BME280;77105;48.940;12.050;2024-03-29T00:30:05;96136.78;;;3.27;83.10
86442;BME280;77105;48.940;12.050;2024-03-29T00:34:06;96136.59;;;3.29;83.30
86442;BME280;77105;48.940;12.050;2024-03-29T00:38:07;96144.38;;;3.30;82.94
86442;BME280;77105;48.940;12.050;2024-03-29T00:42:09;96141.72;;;3.30;83.38
86442;BME280;77105;48.940;12.050;2024-03-29T00:46:10;96133.69;;;3.30;83.06
86442;BME280;77105;48.940;12.050;2024-03-29T00:50:11;96144.59;;;3.29;83.66
86442;BME280;77105;48.940;12.050;2024-03-29T00:54:12;96159.00;;;3.28;83.21
86442;BME280;77105;48.940;12.050;2024-03-29T00:58:15;96145.41;;;3.29;83.95
86442;BME280;77105;48.940;12.050;2024-03-29T01:02:16;96126.09;;;3.27;83.74
86442;BME280;77105;48.940;12.050;2024-03-29T01:06:17;96105.53;;;3.21;83.49
86442;BME280;77105;48.940;12.050;2024-03-29T01:10:18;96095.47;;;3.16;83.59
86442;BME280;77105;48.940;12.050;2024-03-29T01:14:20;96121.38;;;3.16;84.16
86442;BME280;77105;48.940;12.050;2024-03-29T01:18:21;96110.69;;;3.16;84.19
86442;BME280;77105;48.940;12.050;2024-03-29T01:22:22;96099.81;;;3.11;83.96
86442;BME280;77105;48.940;12.050;2024-03-29T01:26:23;96092.00;;;3.09;84.20
86442;BME280;77105;48.940;12.050;2024-03-29T01:30:25;96070.44;;;3.04;84.64
86442;BME280;77105;48.940;12.050;2024-03-29T01:34:27;96068.41;;;3.00;84.42
86442;BME280;77105;48.940;12.050;2024-03-29T01:38:28;96055.63;;;2.95;84.55
86442;BME280;77105;48.940;12.050;2024-03-29T01:42:29;96070.06;;;2.88;84.64
86442;BME280;77105;48.940;12.050;2024-03-29T01:46:34;96078.94;;;2.82;85.15
86442;BME280;77105;48.940;12.050;2024-03-29T01:50:37;96091.22;;;2.83;85.10
86442;BME280;77105;48.940;12.050;2024-03-29T01:54:39;96104.00;;;2.81;85.16
86442;BME280;77105;48.940;12.050;2024-03-29T01:58:41;96101.13;;;2.82;85.18
86442;BME280;77105;48.940;12.050;2024-03-29T02:02:47;96073.59;;;2.82;85.46
86442;BME280;77105;48.940;12.050;2024-03-29T02:06:49;96072.75;;;2.81;85.44
86442;BME280;77105;48.940;12.050;2024-03-29T02:10:52;96086.53;;;2.78;85.72
86442;BME280;77105;48.940;12.050;2024-03-29T02:14:53;96077.69;;;2.78;86.08
86442;BME280;77105;48.940;12.050;2024-03-29T02:18:57;96076.88;;;2.77;86.15
86442;BME280;77105;48.940;12.050;2024-03-29T02:23:02;96068.03;;;2.77;85.95
86442;BME280;77105;48.940;12.050;2024-03-29T02:27:08;96049.94;;;2.79;85.94
86442;BME280;77105;48.940;12.050;2024-03-29T02:31:11;96051.59;;;2.80;86.29
86442;BME280;77105;48.940;12.050;2024-03-29T02:35:13;96038.03;;;2.81;86.48
86442;BME280;77105;48.940;12.050;2024-03-29T02:39:15;96039.44;;;2.84;86.22
86442;BME280;77105;48.940;12.050;2024-03-29T02:43:18;96045.22;;;2.87;86.20
86442;BME280;77105;48.940;12.050;2024-03-29T02:47:20;96034.06;;;2.90;86.34
86442;BME280;77105;48.940;12.050;2024-03-29T02:51:22;96042.50;;;2.94;86.74
86442;BME280;77105;48.940;12.050;2024-03-29T02:55:24;96034.25;;;2.95;86.18
86442;BME280;77105;48.940;12.050;2024-03-29T02:59:26;96042.91;;;2.97;86.55
86442;BME280;77105;48.940;12.050;2024-03-29T03:03:28;96039.41;;;2.97;86.34
86442;BME280;77105;48.940;12.050;2024-03-29T03:07:29;96045.19;;;2.94;86.69
86442;BME280;77105;48.940;12.050;2024-03-29T03:11:49;96029.78;;;2.89;86.51
86442;BME280;77105;48.940;12.050;2024-03-29T03:15:52;96038.63;;;2.83;86.52
86442;BME280;77105;48.940;12.050;2024-03-29T03:19:54;96032.06;;;2.79;86.43
86442;BME280;77105;48.940;12.050;2024-03-29T03:23:56;96027.16;;;2.76;85.84
86442;BME280;77105;48.940;12.050;2024-03-29T03:27:58;96024.47;;;2.76;86.50
86442;BME280;77105;48.940;12.050;2024-03-29T03:32:01;96043.41;;;2.75;86.69
86442;BME280;77105;48.940;12.050;2024-03-29T03:36:04;96047.91;;;2.74;86.60
86442;BME280;77105;48.940;12.050;2024-03-29T03:40:07;96049.16;;;2.72;86.31
86442;BME280;77105;48.940;12.050;2024-03-29T03:44:09;96017.69;;;2.67;86.80
86442;BME280;77105;48.940;12.050;2024-03-29T03:48:12;96025.53;;;2.62;86.61
86442;BME280;77105;48.940;12.050;2024-03-29T03:52:14;96029.66;;;2.58;86.61
86442;BME280;77105;48.940;12.050;2024-03-29T03:56:15;96041.16;;;2.52;86.64
86442;BME280;77105;48.940;12.050;2024-03-29T04:00:18;96052.28;;;2.49;86.47
86442;BME280;77105;48.940;12.050;2024-03-29T04:04:21;96052.47;;;2.47;86.42
86442;BME280;77105;48.940;12.050;2024-03-29T04:08:23;96049.19;;;2.45;87.00
86442;BME280;77105;48.940;12.050;2024-03-29T04:12:25;96047.75;;;2.43;86.94
86442;BME280;77105;48.940;12.050;2024-03-29T04:16:27;96033.97;;;2.39;86.84
86442;BME280;77105;48.940;12.050;2024-03-29T04:20:30;96029.88;;;2.37;87.08
86442;BME280;77105;48.940;12.050;2024-03-29T04:24:32;96033.38;;;2.37;86.68
86442;BME280;77105;48.940;12.050;2024-03-29T04:28:34;96021.88;;;2.37;87.05
86442;BME280;77105;48.940;12.050;2024-03-29T04:32:37;96028.25;;;2.36;87.13
86442;BME280;77105;48.940;12.050;2024-03-29T04:36:40;96022.09;;;2.35;86.86
86442;BME280;77105;48.940;12.050;2024-03-29T04:40:42;96011.19;;;2.37;87.50
86442;BME280;77105;48.940;12.050;2024-03-29T04:44:45;96023.09;;;2.34;87.69
86442;BME280;77105;48.940;12.050;2024-03-29T04:48:50;96021.06;;;2.30;87.41
86442;BME280;77105;48.940;12.050;2024-03-29T04:52:53;96006.91;;;2.29;87.52
86442;BME280;77105;48.940;12.050;2024-03-29T04:56:55;96007.09;;;2.28;87.67
86442;BME280;77105;48.940;12.050;2024-03-29T05:00:57;95998.28;;;2.27;87.86
86442;BME280;77105;48.940;12.050;2024-03-29T05:04:59;96007.09;;;2.28;87.63
86442;BME280;77105;48.940;12.050;2024-03-29T05:09:02;96009.38;;;2.31;87.52
86442;BME280;77105;48.940;12.050;2024-03-29T05:13:04;96009.97;;;2.33;87.55
86442;BME280;77105;48.940;12.050;2024-03-29T05:17:06;96019.84;;;2.32;87.98
86442;BME280;77105;48.940;12.050;2024-03-29T05:21:09;96013.47;;;2.33;87.69
86442;BME280;77105;48.940;12.050;2024-03-29T05:25:12;96018.59;;;2.35;87.83
86442;BME280;77105;48.940;12.050;2024-03-29T05:29:14;96028.25;;;2.36;87.89
86442;BME280;77105;48.940;12.050;2024-03-29T05:33:16;96017.56;;;2.42;87.48
86442;BME280;77105;48.940;12.050;2024-03-29T05:37:18;96017.75;;;2.54;87.43
86442;BME280;77105;48.940;12.050;2024-03-29T05:41:21;96010.94;;;2.65;87.38
86442;BME280;77105;48.940;12.050;2024-03-29T05:45:25;96026.91;;;2.78;87.61
86442;BME280;77105;48.940;12.050;2024-03-29T05:49:27;96030.81;;;2.88;87.45
86442;BME280;77105;48.940;12.050;2024-03-29T05:53:29;96029.16;;;2.94;87.75
86442;BME280;77105;48.940;12.050;2024-03-29T05:57:32;96008.19;;;2.97;87.37
86442;BME280;77105;48.940;12.050;2024-03-29T06:01:38;96009.59;;;3.00;87.22
86442;BME280;77105;48.940;12.050;2024-03-29T06:05:40;95987.56;;;3.04;86.78
86442;BME280;77105;48.940;12.050;2024-03-29T06:09:42;95995.34;;;3.12;87.01
86442;BME280;77105;48.940;12.050;2024-03-29T06:13:45;96001.25;;;3.21;86.34
86442;BME280;77105;48.940;12.050;2024-03-29T06:18:05;96011.28;;;3.39;86.73
86442;BME280;77105;48.940;12.050;2024-03-29T06:22:08;96006.66;;;3.52;86.98
86442;BME280;77105;48.940;12.050;2024-03-29T06:26:10;96002.09;;;3.59;86.27
86442;BME280;77105;48.940;12.050;2024-03-29T06:30:14;96028.84;;;3.59;86.63
86442;BME280;77105;48.940;12.050;2024-03-29T06:34:16;96033.31;;;3.72;86.33
86442;BME280;77105;48.940;12.050;2024-03-29T06:38:18;96029.88;;;3.90;85.98
86442;BME280;77105;48.940;12.050;2024-03-29T06:42:20;96033.28;;;4.03;85.40
86442;BME280;77105;48.940;12.050;2024-03-29T06:46:23;96020.25;;;4.13;85.60
86442;BME280;77105;48.940;12.050;2024-03-29T06:50:25;96028.38;;;4.25;84.97
86442;BME280;77105;48.940;12.050;2024-03-29T06:54:27;96019.84;;;4.34;84.91
86442;BME280;77105;48.940;12.050;2024-03-29T06:58:29;96026.19;;;4.40;84.16
86442;BME280;77105;48.940;12.050;2024-03-29T07:02:32;96029.03;;;4.45;84.25
86442;BME280;77105;48.940;12.050;2024-03-29T07:06:34;96033.28;;;4.53;83.40
86442;BME280;77105;48.940;12.050;2024-03-29T07:10:38;96037.97;;;4.57;83.81
86442;BME280;77105;48.940;12.050;2024-03-29T07:14:39;96054.81;;;4.64;83.75
86442;BME280;77105;48.940;12.050;2024-03-29T07:18:43;96048.56;;;4.70;83.10
86442;BME280;77105;48.940;12.050;2024-03-29T07:22:45;96031.59;;;4.76;82.96
86442;BME280;77105;48.940;12.050;2024-03-29T07:26:49;96037.34;;;4.80;83.10
86442;BME280;77105;48.940;12.050;2024-03-29T07:30:51;96034.81;;;4.85;82.30
86442;BME280;77105;48.940;12.050;2024-03-29T07:34:55;96014.34;;;4.90;82.39
86442;BME280;77105;48.940;12.050;2024-03-29T07:38:59;96000.63;;;4.98;82.33
86442;BME280;77105;48.940;12.050;2024-03-29T07:43:01;95995.34;;;5.10;81.98
86442;BME280;77105;48.940;12.050;2024-03-29T07:47:03;95988.75;;;5.24;81.84
86442;BME280;77105;48.940;12.050;2024-03-29T07:51:07;95985.09;;;5.37;81.78
86442;BME280;77105;48.940;12.050;2024-03-29T07:55:09;95974.19;;;5.50;81.47
86442;BME280;77105;48.940;12.050;2024-03-29T07:59:11;95991.44;;;5.72;81.11
86442;BME280;77105;48.940;12.050;2024-03-29T08:03:13;95978.69;;;5.97;80.48
86442;BME280;77105;48.940;12.050;2024-03-29T08:07:17;95988.53;;;6.26;80.34
86442;BME280;77105;48.940;12.050;2024-03-29T08:11:19;95976.16;;;6.49;79.49
86442;BME280;77105;48.940;12.050;2024-03-29T08:15:20;95985.84;;;6.73;78.99
86442;BME280;77105;48.940;12.050;2024-03-29T08:19:22;95987.47;;;6.97;77.98
86442;BME280;77105;48.940;12.050;2024-03-29T08:23:26;95983.88;;;7.31;77.27
86442;BME280;77105;48.940;12.050;2024-03-29T08:27:28;95986.38;;;7.49;76.57
86442;BME280;77105;48.940;12.050;2024-03-29T08:31:29;95981.38;;;7.70;76.29
86442;BME280;77105;48.940;12.050;2024-03-29T08:35:32;95988.56;;;7.81;74.99
86442;BME280;77105;48.940;12.050;2024-03-29T08:39:36;95970.09;;;8.01;73.73
86442;BME280;77105;48.940;12.050;2024-03-29T08:43:38;95980.13;;;8.22;73.29
86442;BME280;77105;48.940;12.050;2024-03-29T08:47:40;95989.81;;;8.35;71.46
86442;BME280;77105;48.940;12.050;2024-03-29T08:51:42;95984.59;;;8.45;71.49
86442;BME280;77105;48.940;12.050;2024-03-29T08:55:46;95982.28;;;8.53;70.49
86442;BME280;77105;48.940;12.050;2024-03-29T08:59:48;95992.75;;;8.83;70.32
86442;BME280;77105;48.940;12.050;2024-03-29T09:03:51;95994.63;;;9.04;69.47
86442;BME280;77105;48.940;12.050;2024-03-29T09:07:53;95984.78;;;9.15;69.32
86442;BME280;77105;48.940;12.050;2024-03-29T09:11:56;96001.63;;;9.22;68.51
86442;BME280;77105;48.940;12.050;2024-03-29T09:15:58;96005.66;;;9.41;67.92
86442;BME280;77105;48.940;12.050;2024-03-29T09:20:00;96016.19;;;9.64;67.78
86442;BME280;77105;48.940;12.050;2024-03-29T09:24:01;96004.19;;;9.77;67.13
86442;BME280;77105;48.940;12.050;2024-03-29T09:28:05;95997.56;;;9.89;66.49
86442;BME280;77105;48.940;12.050;2024-03-29T09:32:08;95992.31;;;10.04;66.61
86442;BME280;77105;48.940;12.050;2024-03-29T09:36:10;96000.34;;;10.21;66.58
86442;BME280;77105;48.940;12.050;2024-03-29T09:40:13;95981.25;;;10.33;66.23
86442;BME280;77105;48.940;12.050;2024-03-29T09:44:19;95959.97;;;10.41;65.60
86442;BME280;77105;48.940;12.050;2024-03-29T09:48:23;95968.97;;;10.52;64.96
86442;BME280;77105;48.940;12.050;2024-03-29T09:52:27;95960.94;;;10.62;64.77
86442;BME280;77105;48.940;12.050;2024-03-29T09:56:30;95948.28;;;10.73;64.90
86442;BME280;77105;48.940;12.050;2024-03-29T10:00:33;95955.91;;;10.81;64.88
86442;BME280;77105;48.940;12.050;2024-03-29T10:04:35;95950.25;;;10.87;64.55
86442;BME280;77105;48.940;12.050;2024-03-29T10:08:37;95953.00;;;10.92;64.75
86442;BME280;77105;48.940;12.050;2024-03-29T10:12:39;95953.31;;;11.01;64.61
86442;BME280;77105;48.940;12.050;2024-03-29T10:16:42;95966.38;;;11.09;63.66
86442;BME280;77105;48.940;12.050;2024-03-29T10:20:44;95948.84;;;11.26;63.96
86442;BME280;77105;48.940;12.050;2024-03-29T10:24:46;95952.75;;;11.56;63.17
86442;BME280;77105;48.940;12.050;2024-03-29T10:28:48;95949.34;;;11.85;62.87
86442;BME280;77105;48.940;12.050;2024-03-29T10:32:55;95952.09;;;12.06;61.67
86442;BME280;77105;48.940;12.050;2024-03-29T10:36:57;95949.69;;;12.29;61.66
86442;BME280;77105;48.940;12.050;2024-03-29T10:40:58;95950.50;;;12.65;60.00
86442;BME280;77105;48.940;12.050;2024-03-29T10:45:02;95960.47;;;12.95;58.85
86442;BME280;77105;48.940;12.050;2024-03-29T10:49:06;95959.91;;;13.23;58.22
86442;BME280;77105;48.940;12.050;2024-03-29T10:53:10;95957.38;;;13.47;56.44
86442;BME280;77105;48.940;12.050;2024-03-29T10:57:16;95952.69;;;13.62;55.77
86442;BME280;77105;48.940;12.050;2024-03-29T11:01:21;95946.34;;;13.77;55.97
86442;BME280;77105;48.940;12.050;2024-03-29T11:05:26;95937.50;;;14.05;55.54
86442;BME280;77105;48.940;12.050;2024-03-29T11:09:31;95933.38;;;14.52;55.82
86442;BME280;77105;48.940;12.050;2024-03-29T11:13:39;95925.34;;;14.94;55.38
86442;BME280;77105;48.940;12.050;2024-03-29T11:17:42;95938.97;;;15.18;53.70
86442;BME280;77105;48.940;12.050;2024-03-29T11:21:46;95950.72;;;15.42;52.82
86442;BME280;77105;48.940;12.050;2024-03-29T11:25:51;95949.47;;;15.58;50.40
86442;BME280;77105;48.940;12.050;2024-03-29T11:29:54;95948.84;;;15.85;52.04
86442;BME280;77105;48.940;12.050;2024-03-29T11:33:57;95938.47;;;16.05;49.81
86442;BME280;77105;48.940;12.050;2024-03-29T11:38:00;95939.72;;;16.32;50.09
86442;BME280;77105;48.940;12.050;2024-03-29T11:42:03;95916.63;;;16.61;49.61
86442;BME280;77105;48.940;12.050;2024-03-29T11:46:06;95910.66;;;16.73;49.52
86442;BME280;77105;48.940;12.050;2024-03-29T11:50:09;95888.75;;;16.92;49.21
86442;BME280;77105;48.940;12.050;2024-03-29T11:54:14;95880.28;;;17.20;48.51
86442;BME280;77105;48.940;12.050;2024-03-29T11:58:16;95876.31;;;16.99;48.38
86442;BME280;77105;48.940;12.050;2024-03-29T12:02:18;95865.31;;;16.72;49.04
86442;BME280;77105;48.940;12.050;2024-03-29T12:06:20;95856.75;;;16.92;50.39
86442;BME280;77105;48.940;12.050;2024-03-29T12:10:26;95850.09;;;17.12;50.19
86442;BME280;77105;48.940;12.050;2024-03-29T12:14:29;95850.59;;;17.41;50.04
86442;BME280;77105;48.940;12.050;2024-03-29T12:18:36;95844.50;;;17.71;49.00
86442;BME280;77105;48.940;12.050;2024-03-29T12:22:38;95860.66;;;17.95;47.44
86442;BME280;77105;48.940;12.050;2024-03-29T12:26:42;95864.25;;;18.04;46.86
86442;BME280;77105;48.940;12.050;2024-03-29T12:30:45;95840.72;;;18.03;46.30
86442;BME280;77105;48.940;12.050;2024-03-29T12:34:47;95846.03;;;17.99;46.33
86442;BME280;77105;48.940;12.050;2024-03-29T12:38:49;95838.50;;;18.05;46.59
86442;BME280;77105;48.940;12.050;2024-03-29T12:42:58;95830.19;;;18.10;46.24
86442;BME280;77105;48.940;12.050;2024-03-29T12:47:01;95827.34;;;18.01;45.83
86442;BME280;77105;48.940;12.050;2024-03-29T12:51:03;95802.81;;;18.19;46.04
86442;BME280;77105;48.940;12.050;2024-03-29T12:55:06;95806.22;;;18.46;45.91
86442;BME280;77105;48.940;12.050;2024-03-29T12:59:12;95798.78;;;18.60;45.81
86442;BME280;77105;48.940;12.050;2024-03-29T13:03:15;95796.03;;;18.60;44.92
86442;BME280;77105;48.940;12.050;2024-03-29T13:07:18;95789.53;;;18.48;45.82
86442;BME280;77105;48.940;12.050;2024-03-29T13:11:19;95790.63;;;18.47;46.28
86442;BME280;77105;48.940;12.050;2024-03-29T13:15:24;95786.56;;;18.44;45.56
86442;BME280;77105;48.940;12.050;2024-03-29T13:19:26;95760.31;;;18.21;46.28
86442;BME280;77105;48.940;12.050;2024-03-29T13:23:28;95771.66;;;18.50;46.45
86442;BME280;77105;48.940;12.050;2024-03-29T13:27:33;95760.91;;;18.62;45.93
86442;BME280;77105;48.940;12.050;2024-03-29T13:31:36;95763.66;;;18.40;46.55
86442;BME280;77105;48.940;12.050;2024-03-29T13:35:38;95760.59;;;18.42;47.34
86442;BME280;77105;48.940;12.050;2024-03-29T13:39:41;95756.41;;;18.66;47.31
86442;BME280;77105;48.940;12.050;2024-03-29T13:43:43;95744.88;;;18.87;46.76
86442;BME280;77105;48.940;12.050;2024-03-29T13:47:46;95738.72;;;18.81;46.43
86442;BME280;77105;48.940;12.050;2024-03-29T13:51:48;95738.00;;;18.67;46.47
86442;BME280;77105;48.940;12.050;2024-03-29T13:55:50;95735.03;;;18.86;46.39
86442;BME280;77105;48.940;12.050;2024-03-29T13:59:52;95741.06;;;19.05;46.34
86442;BME280;77105;48.940;12.050;2024-03-29T14:03:55;95751.50;;;19.42;45.93
86442;BME280;77105;48.940;12.050;2024-03-29T14:07:57;95753.81;;;19.74;44.92
86442;BME280;77105;48.940;12.050;2024-03-29T14:11:59;95739.56;;;19.72;45.55
86442;BME280;77105;48.940;12.050;2024-03-29T14:16:01;95728.25;;;19.48;45.73
86442;BME280;77105;48.940;12.050;2024-03-29T14:20:06;95720.00;;;19.40;46.10
86442;BME280;77105;48.940;12.050;2024-03-29T14:24:08;95722.94;;;19.60;46.08
86442;BME280;77105;48.940;12.050;2024-03-29T14:28:10;95727.13;;;19.58;45.47
86442;BME280;77105;48.940;12.050;2024-03-29T14:32:12;95718.75;;;18.98;45.68
86442;BME280;77105;48.940;12.050;2024-03-29T14:36:15;95707.53;;;18.60;47.19
86442;BME280;77105;48.940;12.050;2024-03-29T14:40:17;95709.25;;;18.47;48.15
86442;BME280;77105;48.940;12.050;2024-03-29T14:44:20;95703.38;;;18.40;48.63
86442;BME280;77105;48.940;12.050;2024-03-29T14:48:22;95708.16;;;18.57;48.26
86442;BME280;77105;48.940;12.050;2024-03-29T14:52:26;95707.88;;;18.67;48.37
86442;BME280;77105;48.940;12.050;2024-03-29T14:56:28;95693.28;;;18.89;47.73
86442;BME280;77105;48.940;12.050;2024-03-29T15:00:31;95695.50;;;18.78;47.69
86442;BME280;77105;48.940;12.050;2024-03-29T15:04:33;95689.75;;;18.97;47.85
86442;BME280;77105;48.940;12.050;2024-03-29T15:08:36;95692.09;;;19.46;47.20
86442;BME280;77105;48.940;12.050;2024-03-29T15:12:38;95687.72;;;19.79;46.43
86442;BME280;77105;48.940;12.050;2024-03-29T15:16:40;95684.78;;;19.93;46.00
86442;BME280;77105;48.940;12.050;2024-03-29T15:20:53;95678.00;;;19.99;45.74
86442;BME280;77105;48.940;12.050;2024-03-29T15:24:56;95678.50;;;19.84;45.67
86442;BME280;77105;48.940;12.050;2024-03-29T15:28:58;95671.41;;;19.83;45.86
86442;BME280;77105;48.940;12.050;2024-03-29T15:33:11;95675.16;;;19.61;46.02
86442;BME280;77105;48.940;12.050;2024-03-29T15:37:13;95673.03;;;19.58;46.14
86442;BME280;77105;48.940;12.050;2024-03-29T15:41:16;95676.28;;;19.43;46.72
86442;BME280;77105;48.940;12.050;2024-03-29T15:45:18;95674.81;;;19.54;47.10
86442;BME280;77105;48.940;12.050;2024-03-29T15:49:20;95686.94;;;19.62;46.49
86442;BME280;77105;48.940;12.050;2024-03-29T15:53:22;95677.69;;;19.75;46.40
86442;BME280;77105;48.940;12.050;2024-03-29T15:57:25;95682.25;;;19.79;46.20
86442;BME280;77105;48.940;12.050;2024-03-29T16:01:27;95682.75;;;19.64;46.22
86442;BME280;77105;48.940;12.050;2024-03-29T16:05:29;95686.94;;;19.53;46.29
86442;BME280;77105;48.940;12.050;2024-03-29T16:09:31;95687.59;;;19.59;46.24
86442;BME280;77105;48.940;12.050;2024-03-29T16:13:35;95688.38;;;19.42;47.02
86442;BME280;77105;48.940;12.050;2024-03-29T16:17:36;95689.81;;;19.31;47.24
86442;BME280;77105;48.940;12.050;2024-03-29T16:21:38;95688.94;;;19.13;47.76
86442;BME280;77105;48.940;12.050;2024-03-29T16:25:40;95687.28;;;18.78;48.39
86442;BME280;77105;48.940;12.050;2024-03-29T16:29:45;95689.47;;;18.59;48.77
86442;BME280;77105;48.940;12.050;2024-03-29T16:33:47;95687.91;;;18.44;49.53
86442;BME280;77105;48.940;12.050;2024-03-29T16:37:48;95693.66;;;18.26;50.01
86442;BME280;77105;48.940;12.050;2024-03-29T16:41:50;95685.94;;;18.05;50.63
86442;BME280;77105;48.940;12.050;2024-03-29T16:45:55;95681.00;;;17.85;51.11
86442;BME280;77105;48.940;12.050;2024-03-29T16:49:59;95678.28;;;17.63;52.02
86442;BME280;77105;48.940;12.050;2024-03-29T16:54:01;95673.63;;;17.50;52.16
86442;BME280;77105;48.940;12.050;2024-03-29T16:58:03;95682.81;;;17.32;52.76
86442;BME280;77105;48.940;12.050;2024-03-29T17:02:06;95676.41;;;17.14;52.91
86442;BME280;77105;48.940;12.050;2024-03-29T17:06:07;95683.69;;;17.05;53.76
86442;BME280;77105;48.940;12.050;2024-03-29T17:10:09;95682.94;;;16.91;54.17
86442;BME280;77105;48.940;12.050;2024-03-29T17:14:11;95668.19;;;16.78;54.76
86442;BME280;77105;48.940;12.050;2024-03-29T17:18:14;95668.69;;;16.67;54.77
86442;BME280;77105;48.940;12.050;2024-03-29T17:22:17;95664.94;;;16.63;55.29
86442;BME280;77105;48.940;12.050;2024-03-29T17:26:19;95665.88;;;16.58;55.07
86442;BME280;77105;48.940;12.050;2024-03-29T17:30:21;95669.81;;;16.52;55.85
86442;BME280;77105;48.940;12.050;2024-03-29T17:34:24;95666.56;;;16.50;56.09
86442;BME280;77105;48.940;12.050;2024-03-29T17:38:27;95672.94;;;16.46;56.18
86442;BME280;77105;48.940;12.050;2024-03-29T17:42:29;95681.22;;;16.41;56.73
86442;BME280;77105;48.940;12.050;2024-03-29T17:46:30;95681.00;;;16.37;57.04
86442;BME280;77105;48.940;12.050;2024-03-29T17:50:34;95674.63;;;16.28;57.72
86442;BME280;77105;48.940;12.050;2024-03-29T17:54:36;95687.38;;;16.19;58.16
86442;BME280;77105;48.940;12.050;2024-03-29T17:58:37;95682.31;;;16.12;58.54
86442;BME280;77105;48.940;12.050;2024-03-29T18:02:38;95687.44;;;16.00;59.10
86442;BME280;77105;48.940;12.050;2024-03-29T18:06:42;95691.66;;;15.93;59.59
86442;BME280;77105;48.940;12.050;2024-03-29T18:10:44;95694.47;;;15.88;59.60
86442;BME280;77105;48.940;12.050;2024-03-29T18:14:46;95707.13;;;15.84;60.15
86442;BME280;77105;48.940;12.050;2024-03-29T18:18:50;95712.94;;;15.77;59.86
86442;BME280;77105;48.940;12.050;2024-03-29T18:22:53;95700.59;;;15.66;60.80
86442;BME280;77105;48.940;12.050;2024-03-29T18:26:55;95705.59;;;15.59;60.76
86442;BME280;77105;48.940;12.050;2024-03-29T18:30:57;95703.78;;;15.54;60.96
86442;BME280;77105;48.940;12.050;2024-03-29T18:35:01;95706.00;;;15.52;61.24
86442;BME280;77105;48.940;12.050;2024-03-29T18:39:05;95718.31;;;15.50;61.08
86442;BME280;77105;48.940;12.050;2024-03-29T18:43:07;95723.81;;;15.45;61.59
86442;BME280;77105;48.940;12.050;2024-03-29T18:47:09;95722.84;;;15.36;61.86
86442;BME280;77105;48.940;12.050;2024-03-29T18:51:11;95726.53;;;15.26;62.46
86442;BME280;77105;48.940;12.050;2024-03-29T18:55:15;95730.72;;;15.19;62.31
86442;BME280;77105;48.940;12.050;2024-03-29T18:59:15;95727.34;;;15.08;62.88
86442;BME280;77105;48.940;12.050;2024-03-29T19:03:24;95722.41;;;14.91;63.24
86442;BME280;77105;48.940;12.050;2024-03-29T19:07:25;95738.66;;;14.78;63.88
86442;BME280;77105;48.940;12.050;2024-03-29T19:11:29;95734.78;;;14.60;64.09
86442;BME280;77105;48.940;12.050;2024-03-29T19:15:31;95737.56;;;14.55;64.31
86442;BME280;77105;48.940;12.050;2024-03-29T19:19:32;95739.59;;;14.45;64.78
86442;BME280;77105;48.940;12.050;2024-03-29T19:23:35;95742.69;;;14.33;64.83
86442;BME280;77105;48.940;12.050;2024-03-29T19:27:38;95748.47;;;14.26;65.18
86442;BME280;77105;48.940;12.050;2024-03-29T19:31:40;95743.94;;;14.17;65.58
86442;BME280;77105;48.940;12.050;2024-03-29T19:35:42;95750.00;;;14.09;65.97
86442;BME280;77105;48.940;12.050;2024-03-29T19:39:44;95749.56;;;13.97;66.37
86442;BME280;77105;48.940;12.050;2024-03-29T19:43:47;95750.47;;;13.87;66.92
86442;BME280;77105;48.940;12.050;2024-03-29T19:47:49;95756.81;;;13.77;66.65
86442;BME280;77105;48.940;12.050;2024-03-29T19:51:53;95756.88;;;13.67;67.32
86442;BME280;77105;48.940;12.050;2024-03-29T19:55:55;95752.06;;;13.59;67.46
86442;BME280;77105;48.940;12.050;2024-03-29T19:59:58;95762.16;;;13.54;67.39
86442;BME280;77105;48.940;12.050;2024-03-29T20:04:00;95762.53;;;13.42;68.36
86442;BME280;77105;48.940;12.050;2024-03-29T20:08:01;95769.13;;;13.26;68.38
86442;BME280;77105;48.940;12.050;2024-03-29T20:12:05;95774.97;;;13.09;68.66
86442;BME280;77105;48.940;12.050;2024-03-29T20:16:09;95777.41;;;13.01;69.48
86442;BME280;77105;48.940;12.050;2024-03-29T20:20:12;95772.53;;;12.98;69.07
86442;BME280;77105;48.940;12.050;2024-03-29T20:24:14;95772.56;;;12.93;68.80
86442;BME280;77105;48.940;12.050;2024-03-29T20:28:17;95787.25;;;12.82;69.84
86442;BME280;77105;48.940;12.050;2024-03-29T20:32:22;95782.41;;;12.74;69.61
86442;BME280;77105;48.940;12.050;2024-03-29T20:36:22;95790.84;;;12.72;70.21
86442;BME280;77105;48.940;12.050;2024-03-29T20:40:24;95781.06;;;12.71;70.11
86442;BME280;77105;48.940;12.050;2024-03-29T20:44:26;95784.34;;;12.68;69.82
86442;BME280;77105;48.940;12.050;2024-03-29T20:48:29;95788.97;;;12.63;70.16
86442;BME280;77105;48.940;12.050;2024-03-29T20:52:32;95790.88;;;12.57;70.53
86442;BME280;77105;48.940;12.050;2024-03-29T20:56:33;95798.78;;;12.48;70.06
86442;BME280;77105;48.940;12.050;2024-03-29T21:00:34;95796.38;;;12.37;70.30
86442;BME280;77105;48.940;12.050;2024-03-29T21:04:38;95792.88;;;12.26;70.94
86442;BME280;77105;48.940;12.050;2024-03-29T21:08:57;95804.81;;;12.20;71.65
86442;BME280;77105;48.940;12.050;2024-03-29T21:12:59;95795.06;;;12.14;71.20
86442;BME280;77105;48.940;12.050;2024-03-29T21:17:02;95795.63;;;12.06;71.42